sensor_id;sensor_type;location;lat;lon;timestamp;P1;durP1;ratioP1;P2;durP2;ratioP2
22937;SDS011;11634;42.734;23.298;2023-03-04T00:02:20;21.67;;;16.90;;
22937;SDS011;11634;42.734;23.298;2023-03-04T00:04:46;26.30;;;18.23;;
22937;SDS011;11634;42.734;23.298;2023-03-04T00:07:11;24.20;;;17.88;;
22937;SDS011;11634;42.734;23.298;2023-03-04T00:09:41;22.63;;;16.85;;
22937;SDS011;11634;42.734;23.298;2023-03-04T00:12:11;22.73;;;16.55;;
22937;SDS011;11634;42.734;23.298;2023-03-04T00:14:37;26.08;;;17.33;;
22937;SDS011;11634;42.734;23.298;2023-03-04T00:17:03;22.67;;;17.23;;
22937;SDS011;11634;42.734;23.298;2023-03-04T00:19:29;25.50;;;17.77;;
22937;SDS011;11634;42.734;23.298;2023-03-04T00:21:55;20.00;;;15.73;;
22937;SDS011;11634;42.734;23.298;2023-03-04T00:24:21;22.15;;;17.00;;
22937;SDS011;11634;42.734;23.298;2023-03-04T00:26:46;21.90;;;16.55;;
22937;SDS011;11634;42.734;23.298;2023-03-04T00:29:12;21.80;;;15.98;;
22937;SDS011;11634;42.734;23.298;2023-03-04T00:31:38;21.75;;;17.13;;
22937;SDS011;11634;42.734;23.298;2023-03-04T00:34:03;20.60;;;16.95;;
22937;SDS011;11634;42.734;23.298;2023-03-04T00:36:29;24.55;;;17.58;;
22937;SDS011;11634;42.734;23.298;2023-03-04T00:38:54;19.60;;;16.05;;
22937;SDS011;11634;42.734;23.298;2023-03-04T00:41:20;23.75;;;16.67;;
22937;SDS011;11634;42.734;23.298;2023-03-04T00:43:45;23.08;;;17.48;;
22937;SDS011;11634;42.734;23.298;2023-03-04T00:46:11;23.60;;;17.38;;
22937;SDS011;11634;42.734;23.298;2023-03-04T00:48:37;22.20;;;17.10;;
22937;SDS011;11634;42.734;23.298;2023-03-04T00:51:03;22.38;;;17.70;;
22937;SDS011;11634;42.734;23.298;2023-03-04T00:53:29;24.25;;;18.02;;
22937;SDS011;11634;42.734;23.298;2023-03-04T00:55:55;21.08;;;16.00;;
22937;SDS011;11634;42.734;23.298;2023-03-04T00:58:20;21.67;;;17.33;;
22937;SDS011;11634;42.734;23.298;2023-03-04T01:00:46;24.00;;;18.17;;
22937;SDS011;11634;42.734;23.298;2023-03-04T01:03:11;24.58;;;17.98;;
22937;SDS011;11634;42.734;23.298;2023-03-04T01:05:38;23.42;;;18.92;;
22937;SDS011;11634;42.734;23.298;2023-03-04T01:08:04;24.23;;;18.98;;
22937;SDS011;11634;42.734;23.298;2023-03-04T01:10:29;22.48;;;17.38;;
22937;SDS011;11634;42.734;23.298;2023-03-04T01:12:55;21.23;;;16.88;;
22937;SDS011;11634;42.734;23.298;2023-03-04T01:15:21;22.70;;;18.33;;
22937;SDS011;11634;42.734;23.298;2023-03-04T01:17:47;24.52;;;18.42;;
22937;SDS011;11634;42.734;23.298;2023-03-04T01:20:14;23.60;;;19.20;;
22937;SDS011;11634;42.734;23.298;2023-03-04T01:22:40;22.77;;;17.15;;
22937;SDS011;11634;42.734;23.298;2023-03-04T01:25:06;22.73;;;17.70;;
22937;SDS011;11634;42.734;23.298;2023-03-04T01:27:32;20.85;;;17.08;;
22937;SDS011;11634;42.734;23.298;2023-03-04T01:29:58;22.55;;;17.70;;
22937;SDS011;11634;42.734;23.298;2023-03-04T01:32:23;24.42;;;17.73;;
22937;SDS011;11634;42.734;23.298;2023-03-04T01:34:49;26.38;;;18.00;;
22937;SDS011;11634;42.734;23.298;2023-03-04T01:37:14;25.80;;;18.10;;
22937;SDS011;11634;42.734;23.298;2023-03-04T01:39:40;23.20;;;17.63;;
22937;SDS011;11634;42.734;23.298;2023-03-04T01:42:06;22.08;;;16.60;;
22937;SDS011;11634;42.734;23.298;2023-03-04T01:44:42;19.67;;;15.35;;
22937;SDS011;11634;42.734;23.298;2023-03-04T01:47:09;19.25;;;15.40;;
22937;SDS011;11634;42.734;23.298;2023-03-04T01:49:35;21.90;;;16.58;;
22937;SDS011;11634;42.734;23.298;2023-03-04T01:52:00;19.88;;;15.63;;
22937;SDS011;11634;42.734;23.298;2023-03-04T01:54:26;20.73;;;16.45;;
22937;SDS011;11634;42.734;23.298;2023-03-04T01:56:51;19.85;;;15.70;;
22937;SDS011;11634;42.734;23.298;2023-03-04T01:59:21;21.95;;;16.65;;
22937;SDS011;11634;42.734;23.298;2023-03-04T02:01:51;19.85;;;16.65;;
22937;SDS011;11634;42.734;23.298;2023-03-04T02:04:20;20.50;;;16.50;;
22937;SDS011;11634;42.734;23.298;2023-03-04T02:06:48;20.73;;;16.58;;
22937;SDS011;11634;42.734;23.298;2023-03-04T02:09:16;20.42;;;16.80;;
22937;SDS011;11634;42.734;23.298;2023-03-04T02:11:43;21.73;;;16.50;;
22937;SDS011;11634;42.734;23.298;2023-03-04T02:14:10;20.80;;;16.15;;
22937;SDS011;11634;42.734;23.298;2023-03-04T02:16:37;19.77;;;15.65;;
22937;SDS011;11634;42.734;23.298;2023-03-04T02:19:08;22.23;;;15.73;;
22937;SDS011;11634;42.734;23.298;2023-03-04T02:21:49;22.65;;;16.73;;
22937;SDS011;11634;42.734;23.298;2023-03-04T02:24:37;21.48;;;16.80;;
22937;SDS011;11634;42.734;23.298;2023-03-04T02:27:04;19.35;;;14.80;;
22937;SDS011;11634;42.734;23.298;2023-03-04T02:29:30;17.90;;;14.77;;
22937;SDS011;11634;42.734;23.298;2023-03-04T02:31:56;19.85;;;15.02;;
22937;SDS011;11634;42.734;23.298;2023-03-04T02:34:23;20.42;;;16.10;;
22937;SDS011;11634;42.734;23.298;2023-03-04T02:36:53;19.50;;;15.52;;
22937;SDS011;11634;42.734;23.298;2023-03-04T02:41:50;18.60;;;15.93;;
22937;SDS011;11634;42.734;23.298;2023-03-04T02:44:19;20.67;;;15.60;;
22937;SDS011;11634;42.734;23.298;2023-03-04T02:46:46;20.52;;;16.45;;
22937;SDS011;11634;42.734;23.298;2023-03-04T02:49:13;19.88;;;15.07;;
22937;SDS011;11634;42.734;23.298;2023-03-04T02:51:39;19.20;;;15.48;;
22937;SDS011;11634;42.734;23.298;2023-03-04T02:54:13;19.75;;;15.35;;
22937;SDS011;11634;42.734;23.298;2023-03-04T02:56:44;18.98;;;15.85;;
22937;SDS011;11634;42.734;23.298;2023-03-04T02:59:15;18.60;;;15.75;;
22937;SDS011;11634;42.734;23.298;2023-03-04T03:01:42;18.33;;;14.75;;
22937;SDS011;11634;42.734;23.298;2023-03-04T03:04:08;19.27;;;15.43;;
22937;SDS011;11634;42.734;23.298;2023-03-04T03:06:34;20.33;;;16.38;;
22937;SDS011;11634;42.734;23.298;2023-03-04T03:08:59;20.35;;;15.30;;
22937;SDS011;11634;42.734;23.298;2023-03-04T03:11:25;19.92;;;15.20;;
22937;SDS011;11634;42.734;23.298;2023-03-04T03:13:52;20.40;;;15.88;;
22937;SDS011;11634;42.734;23.298;2023-03-04T03:16:17;19.52;;;15.65;;
22937;SDS011;11634;42.734;23.298;2023-03-04T03:18:43;21.17;;;15.90;;
22937;SDS011;11634;42.734;23.298;2023-03-04T03:21:09;19.38;;;15.35;;
22937;SDS011;11634;42.734;23.298;2023-03-04T03:23:34;20.13;;;16.40;;
22937;SDS011;11634;42.734;23.298;2023-03-04T03:26:00;20.17;;;15.85;;
22937;SDS011;11634;42.734;23.298;2023-03-04T03:28:26;21.15;;;15.57;;
22937;SDS011;11634;42.734;23.298;2023-03-04T03:30:53;22.20;;;16.75;;
22937;SDS011;11634;42.734;23.298;2023-03-04T03:33:18;19.40;;;14.90;;
22937;SDS011;11634;42.734;23.298;2023-03-04T03:35:44;19.33;;;15.80;;
22937;SDS011;11634;42.734;23.298;2023-03-04T03:38:10;22.85;;;16.88;;
22937;SDS011;11634;42.734;23.298;2023-03-04T03:40:36;22.38;;;16.10;;
22937;SDS011;11634;42.734;23.298;2023-03-04T03:43:01;44.78;;;26.02;;
22937;SDS011;11634;42.734;23.298;2023-03-04T03:45:27;23.10;;;17.42;;
22937;SDS011;11634;42.734;23.298;2023-03-04T03:47:52;21.27;;;16.88;;
22937;SDS011;11634;42.734;23.298;2023-03-04T03:50:18;24.55;;;18.92;;
22937;SDS011;11634;42.734;23.298;2023-03-04T03:52:44;24.20;;;18.05;;
22937;SDS011;11634;42.734;23.298;2023-03-04T03:55:09;26.23;;;18.92;;
22937;SDS011;11634;42.734;23.298;2023-03-04T03:57:35;25.65;;;18.70;;
22937;SDS011;11634;42.734;23.298;2023-03-04T04:00:01;29.80;;;20.05;;
22937;SDS011;11634;42.734;23.298;2023-03-04T04:02:37;27.98;;;18.77;;
22937;SDS011;11634;42.734;23.298;2023-03-04T04:05:03;27.73;;;19.15;;
22937;SDS011;11634;42.734;23.298;2023-03-04T04:07:29;26.77;;;20.63;;
22937;SDS011;11634;42.734;23.298;2023-03-04T04:09:55;28.48;;;20.00;;
22937;SDS011;11634;42.734;23.298;2023-03-04T04:12:20;26.48;;;20.23;;
22937;SDS011;11634;42.734;23.298;2023-03-04T04:14:46;29.88;;;19.33;;
22937;SDS011;11634;42.734;23.298;2023-03-04T04:17:12;25.88;;;19.25;;
22937;SDS011;11634;42.734;23.298;2023-03-04T04:19:38;26.70;;;19.30;;
22937;SDS011;11634;42.734;23.298;2023-03-04T04:22:05;23.98;;;18.13;;
22937;SDS011;11634;42.734;23.298;2023-03-04T04:24:32;26.40;;;19.52;;
22937;SDS011;11634;42.734;23.298;2023-03-04T04:26:58;24.92;;;18.67;;
22937;SDS011;11634;42.734;23.298;2023-03-04T04:29:24;27.25;;;19.20;;
22937;SDS011;11634;42.734;23.298;2023-03-04T04:31:50;25.38;;;19.10;;
22937;SDS011;11634;42.734;23.298;2023-03-04T04:34:15;25.60;;;19.58;;
22937;SDS011;11634;42.734;23.298;2023-03-04T04:36:41;24.23;;;19.33;;
22937;SDS011;11634;42.734;23.298;2023-03-04T04:39:07;27.25;;;19.20;;
22937;SDS011;11634;42.734;23.298;2023-03-04T04:41:36;29.10;;;20.30;;
22937;SDS011;11634;42.734;23.298;2023-03-04T04:44:05;31.80;;;20.67;;
22937;SDS011;11634;42.734;23.298;2023-03-04T04:46:31;26.90;;;19.95;;
22937;SDS011;11634;42.734;23.298;2023-03-04T04:49:00;184.77;;;79.57;;
22937;SDS011;11634;42.734;23.298;2023-03-04T04:51:27;32.88;;;22.58;;
22937;SDS011;11634;42.734;23.298;2023-03-04T04:53:53;51.15;;;30.65;;
22937;SDS011;11634;42.734;23.298;2023-03-04T04:56:20;43.95;;;27.85;;
22937;SDS011;11634;42.734;23.298;2023-03-04T04:58:47;42.20;;;27.13;;
22937;SDS011;11634;42.734;23.298;2023-03-04T05:01:13;46.13;;;27.95;;
22937;SDS011;11634;42.734;23.298;2023-03-04T05:03:39;39.97;;;26.70;;
22937;SDS011;11634;42.734;23.298;2023-03-04T05:06:06;37.20;;;26.20;;
22937;SDS011;11634;42.734;23.298;2023-03-04T05:08:33;37.70;;;24.02;;
22937;SDS011;11634;42.734;23.298;2023-03-04T05:11:00;37.75;;;26.55;;
22937;SDS011;11634;42.734;23.298;2023-03-04T05:13:29;31.83;;;22.52;;
22937;SDS011;11634;42.734;23.298;2023-03-04T05:15:55;35.53;;;24.15;;
22937;SDS011;11634;42.734;23.298;2023-03-04T05:18:21;41.05;;;28.88;;
22937;SDS011;11634;42.734;23.298;2023-03-04T05:20:49;35.58;;;25.95;;
22937;SDS011;11634;42.734;23.298;2023-03-04T05:23:19;35.70;;;25.73;;
22937;SDS011;11634;42.734;23.298;2023-03-04T05:25:45;39.50;;;28.42;;
22937;SDS011;11634;42.734;23.298;2023-03-04T05:28:12;38.85;;;28.75;;
22937;SDS011;11634;42.734;23.298;2023-03-04T05:30:38;65.25;;;50.20;;
22937;SDS011;11634;42.734;23.298;2023-03-04T05:33:05;47.58;;;35.83;;
22937;SDS011;11634;42.734;23.298;2023-03-04T05:35:36;46.85;;;36.80;;
22937;SDS011;11634;42.734;23.298;2023-03-04T05:38:03;46.33;;;36.20;;
22937;SDS011;11634;42.734;23.298;2023-03-04T05:40:30;48.13;;;38.70;;
22937;SDS011;11634;42.734;23.298;2023-03-04T05:42:56;30.48;;;22.30;;
22937;SDS011;11634;42.734;23.298;2023-03-04T05:45:22;27.65;;;21.23;;
22937;SDS011;11634;42.734;23.298;2023-03-04T05:47:48;32.42;;;23.45;;
22937;SDS011;11634;42.734;23.298;2023-03-04T05:50:13;23.98;;;18.13;;
22937;SDS011;11634;42.734;23.298;2023-03-04T05:52:39;23.98;;;19.70;;
22937;SDS011;11634;42.734;23.298;2023-03-04T05:55:05;38.03;;;27.70;;
22937;SDS011;11634;42.734;23.298;2023-03-04T05:57:31;36.20;;;27.05;;
22937;SDS011;11634;42.734;23.298;2023-03-04T05:59:56;35.42;;;29.13;;
22937;SDS011;11634;42.734;23.298;2023-03-04T06:02:22;32.95;;;26.08;;
22937;SDS011;11634;42.734;23.298;2023-03-04T06:04:47;34.65;;;25.65;;
22937;SDS011;11634;42.734;23.298;2023-03-04T06:07:13;33.88;;;26.45;;
22937;SDS011;11634;42.734;23.298;2023-03-04T06:09:38;34.13;;;25.77;;
22937;SDS011;11634;42.734;23.298;2023-03-04T06:12:04;35.42;;;27.88;;
22937;SDS011;11634;42.734;23.298;2023-03-04T06:14:30;35.63;;;29.50;;
22937;SDS011;11634;42.734;23.298;2023-03-04T06:16:55;33.92;;;26.17;;
22937;SDS011;11634;42.734;23.298;2023-03-04T06:19:24;30.95;;;22.77;;
22937;SDS011;11634;42.734;23.298;2023-03-04T06:21:49;31.52;;;23.42;;
22937;SDS011;11634;42.734;23.298;2023-03-04T06:24:15;30.77;;;23.33;;
22937;SDS011;11634;42.734;23.298;2023-03-04T06:26:41;35.28;;;24.63;;
22937;SDS011;11634;42.734;23.298;2023-03-04T06:29:06;28.80;;;23.15;;
22937;SDS011;11634;42.734;23.298;2023-03-04T06:31:32;26.98;;;21.52;;
22937;SDS011;11634;42.734;23.298;2023-03-04T06:33:57;27.23;;;21.17;;
22937;SDS011;11634;42.734;23.298;2023-03-04T06:36:23;25.92;;;19.25;;
22937;SDS011;11634;42.734;23.298;2023-03-04T06:38:48;26.88;;;20.35;;
22937;SDS011;11634;42.734;23.298;2023-03-04T06:41:15;15.60;;;11.80;;
22937;SDS011;11634;42.734;23.298;2023-03-04T06:43:40;17.70;;;13.82;;
22937;SDS011;11634;42.734;23.298;2023-03-04T06:46:07;23.15;;;16.95;;
22937;SDS011;11634;42.734;23.298;2023-03-04T06:48:33;21.08;;;15.90;;
22937;SDS011;11634;42.734;23.298;2023-03-04T06:51:03;23.38;;;17.42;;
22937;SDS011;11634;42.734;23.298;2023-03-04T06:53:30;24.92;;;18.08;;
22937;SDS011;11634;42.734;23.298;2023-03-04T06:55:55;25.88;;;18.45;;
22937;SDS011;11634;42.734;23.298;2023-03-04T06:58:21;23.00;;;17.42;;
22937;SDS011;11634;42.734;23.298;2023-03-04T07:00:46;20.35;;;15.20;;
22937;SDS011;11634;42.734;23.298;2023-03-04T07:03:12;19.20;;;14.32;;
22937;SDS011;11634;42.734;23.298;2023-03-04T07:05:38;17.70;;;13.07;;
22937;SDS011;11634;42.734;23.298;2023-03-04T07:08:03;20.42;;;13.43;;
22937;SDS011;11634;42.734;23.298;2023-03-04T07:10:31;19.55;;;14.63;;
22937;SDS011;11634;42.734;23.298;2023-03-04T07:12:56;20.65;;;14.18;;
22937;SDS011;11634;42.734;23.298;2023-03-04T07:15:22;18.60;;;12.95;;
22937;SDS011;11634;42.734;23.298;2023-03-04T07:17:47;19.08;;;13.00;;
22937;SDS011;11634;42.734;23.298;2023-03-04T07:20:13;18.92;;;11.75;;
22937;SDS011;11634;42.734;23.298;2023-03-04T07:22:39;19.15;;;12.35;;
22937;SDS011;11634;42.734;23.298;2023-03-04T07:25:07;14.95;;;11.60;;
22937;SDS011;11634;42.734;23.298;2023-03-04T07:27:33;18.45;;;12.73;;
22937;SDS011;11634;42.734;23.298;2023-03-04T07:29:59;17.50;;;12.18;;
22937;SDS011;11634;42.734;23.298;2023-03-04T07:32:24;17.40;;;11.90;;
22937;SDS011;11634;42.734;23.298;2023-03-04T07:34:50;15.38;;;11.52;;
22937;SDS011;11634;42.734;23.298;2023-03-04T07:37:16;17.60;;;12.32;;
22937;SDS011;11634;42.734;23.298;2023-03-04T07:39:41;21.67;;;13.00;;
22937;SDS011;11634;42.734;23.298;2023-03-04T07:42:07;18.48;;;13.27;;
22937;SDS011;11634;42.734;23.298;2023-03-04T07:44:38;18.50;;;13.27;;
22937;SDS011;11634;42.734;23.298;2023-03-04T07:47:03;18.55;;;14.00;;
22937;SDS011;11634;42.734;23.298;2023-03-04T07:49:29;19.75;;;13.15;;
22937;SDS011;11634;42.734;23.298;2023-03-04T07:51:54;19.88;;;13.07;;
22937;SDS011;11634;42.734;23.298;2023-03-04T07:54:20;19.60;;;14.32;;
22937;SDS011;11634;42.734;23.298;2023-03-04T07:56:45;23.95;;;14.35;;
22937;SDS011;11634;42.734;23.298;2023-03-04T07:59:11;19.02;;;13.10;;
22937;SDS011;11634;42.734;23.298;2023-03-04T08:01:37;17.55;;;12.82;;
22937;SDS011;11634;42.734;23.298;2023-03-04T08:04:03;19.65;;;12.75;;
22937;SDS011;11634;42.734;23.298;2023-03-04T08:06:30;17.35;;;13.23;;
22937;SDS011;11634;42.734;23.298;2023-03-04T08:08:57;18.73;;;13.90;;
22937;SDS011;11634;42.734;23.298;2023-03-04T08:11:26;19.58;;;13.13;;
22937;SDS011;11634;42.734;23.298;2023-03-04T08:13:52;16.40;;;11.00;;
22937;SDS011;11634;42.734;23.298;2023-03-04T08:16:19;18.42;;;12.02;;
22937;SDS011;11634;42.734;23.298;2023-03-04T08:18:48;16.70;;;12.15;;
22937;SDS011;11634;42.734;23.298;2023-03-04T08:21:16;18.88;;;12.68;;
22937;SDS011;11634;42.734;23.298;2023-03-04T08:23:43;18.58;;;14.00;;
22937;SDS011;11634;42.734;23.298;2023-03-04T08:26:11;21.65;;;14.63;;
22937;SDS011;11634;42.734;23.298;2023-03-04T08:28:39;18.00;;;13.52;;
22937;SDS011;11634;42.734;23.298;2023-03-04T08:31:05;19.30;;;12.98;;
22937;SDS011;11634;42.734;23.298;2023-03-04T08:33:31;19.48;;;13.77;;
22937;SDS011;11634;42.734;23.298;2023-03-04T08:35:57;20.42;;;14.45;;
22937;SDS011;11634;42.734;23.298;2023-03-04T08:38:23;17.10;;;12.93;;
22937;SDS011;11634;42.734;23.298;2023-03-04T08:40:53;21.17;;;13.48;;
22937;SDS011;11634;42.734;23.298;2023-03-04T08:43:20;16.15;;;10.27;;
22937;SDS011;11634;42.734;23.298;2023-03-04T08:45:46;20.70;;;12.88;;
22937;SDS011;11634;42.734;23.298;2023-03-04T08:48:12;19.00;;;13.20;;
22937;SDS011;11634;42.734;23.298;2023-03-04T08:50:38;19.13;;;14.88;;
22937;SDS011;11634;42.734;23.298;2023-03-04T08:53:03;17.80;;;12.02;;
22937;SDS011;11634;42.734;23.298;2023-03-04T08:55:29;16.40;;;12.18;;
22937;SDS011;11634;42.734;23.298;2023-03-04T08:57:54;16.65;;;12.38;;
22937;SDS011;11634;42.734;23.298;2023-03-04T09:00:20;20.73;;;12.88;;
22937;SDS011;11634;42.734;23.298;2023-03-04T09:02:48;17.13;;;11.95;;
22937;SDS011;11634;42.734;23.298;2023-03-04T09:05:14;12.90;;;9.85;;
22937;SDS011;11634;42.734;23.298;2023-03-04T09:07:39;14.18;;;9.73;;
22937;SDS011;11634;42.734;23.298;2023-03-04T09:10:05;12.85;;;10.05;;
22937;SDS011;11634;42.734;23.298;2023-03-04T09:12:31;15.05;;;11.35;;
22937;SDS011;11634;42.734;23.298;2023-03-04T09:14:56;16.65;;;12.02;;
22937;SDS011;11634;42.734;23.298;2023-03-04T09:17:22;15.02;;;10.90;;
22937;SDS011;11634;42.734;23.298;2023-03-04T09:19:47;16.30;;;11.63;;
22937;SDS011;11634;42.734;23.298;2023-03-04T09:22:13;14.23;;;10.65;;
22937;SDS011;11634;42.734;23.298;2023-03-04T09:24:39;13.10;;;10.23;;
22937;SDS011;11634;42.734;23.298;2023-03-04T09:27:04;14.73;;;11.10;;
22937;SDS011;11634;42.734;23.298;2023-03-04T09:29:30;16.52;;;10.93;;
22937;SDS011;11634;42.734;23.298;2023-03-04T09:31:55;14.15;;;11.25;;
22937;SDS011;11634;42.734;23.298;2023-03-04T09:34:24;15.85;;;10.27;;
22937;SDS011;11634;42.734;23.298;2023-03-04T09:36:52;16.05;;;10.93;;
22937;SDS011;11634;42.734;23.298;2023-03-04T09:39:17;15.27;;;10.98;;
22937;SDS011;11634;42.734;23.298;2023-03-04T09:41:45;14.25;;;11.48;;
22937;SDS011;11634;42.734;23.298;2023-03-04T09:44:32;16.52;;;10.60;;
22937;SDS011;11634;42.734;23.298;2023-03-04T09:47:02;19.77;;;11.68;;
22937;SDS011;11634;42.734;23.298;2023-03-04T09:49:30;13.70;;;10.15;;
22937;SDS011;11634;42.734;23.298;2023-03-04T10:00:21;21.25;;;15.63;;
22937;SDS011;11634;42.734;23.298;2023-03-04T10:05:35;15.15;;;11.57;;
22937;SDS011;11634;42.734;23.298;2023-03-04T10:11:14;20.45;;;11.55;;
22937;SDS011;11634;42.734;23.298;2023-03-04T10:13:49;13.30;;;10.50;;
22937;SDS011;11634;42.734;23.298;2023-03-04T10:16:21;17.17;;;11.07;;
22937;SDS011;11634;42.734;23.298;2023-03-04T10:18:52;14.52;;;10.40;;
22937;SDS011;11634;42.734;23.298;2023-03-04T10:21:29;13.55;;;10.63;;
22937;SDS011;11634;42.734;23.298;2023-03-04T10:24:13;15.10;;;11.02;;
22937;SDS011;11634;42.734;23.298;2023-03-04T10:26:43;15.93;;;11.98;;
22937;SDS011;11634;42.734;23.298;2023-03-04T10:29:18;14.43;;;10.70;;
22937;SDS011;11634;42.734;23.298;2023-03-04T10:31:45;15.63;;;12.48;;
22937;SDS011;11634;42.734;23.298;2023-03-04T10:34:11;15.55;;;10.75;;
22937;SDS011;11634;42.734;23.298;2023-03-04T10:39:27;15.90;;;12.02;;
22937;SDS011;11634;42.734;23.298;2023-03-04T10:42:35;18.38;;;12.32;;
22937;SDS011;11634;42.734;23.298;2023-03-04T10:44:44;15.65;;;12.48;;
22937;SDS011;11634;42.734;23.298;2023-03-04T10:47:26;17.67;;;12.98;;
22937;SDS011;11634;42.734;23.298;2023-03-04T10:50:01;14.57;;;11.77;;
22937;SDS011;11634;42.734;23.298;2023-03-04T10:52:30;16.85;;;12.10;;
22937;SDS011;11634;42.734;23.298;2023-03-04T10:54:59;18.85;;;12.13;;
22937;SDS011;11634;42.734;23.298;2023-03-04T11:02:43;18.63;;;13.10;;
22937;SDS011;11634;42.734;23.298;2023-03-04T11:07:40;16.42;;;12.95;;
22937;SDS011;11634;42.734;23.298;2023-03-04T11:10:16;20.00;;;14.27;;
22937;SDS011;11634;42.734;23.298;2023-03-04T11:12:49;16.80;;;12.55;;
22937;SDS011;11634;42.734;23.298;2023-03-04T11:15:18;14.95;;;12.60;;
22937;SDS011;11634;42.734;23.298;2023-03-04T11:17:49;17.33;;;13.02;;
22937;SDS011;11634;42.734;23.298;2023-03-04T11:22:56;18.80;;;12.82;;
22937;SDS011;11634;42.734;23.298;2023-03-04T11:25:26;18.17;;;12.30;;
22937;SDS011;11634;42.734;23.298;2023-03-04T11:27:57;18.25;;;12.48;;
22937;SDS011;11634;42.734;23.298;2023-03-04T11:33:12;16.38;;;12.23;;
22937;SDS011;11634;42.734;23.298;2023-03-04T11:35:43;17.60;;;12.20;;
22937;SDS011;11634;42.734;23.298;2023-03-04T11:38:28;18.65;;;12.57;;
22937;SDS011;11634;42.734;23.298;2023-03-04T11:41:33;20.02;;;13.13;;
22937;SDS011;11634;42.734;23.298;2023-03-04T11:44:07;18.88;;;13.02;;
22937;SDS011;11634;42.734;23.298;2023-03-04T12:14:12;20.45;;;13.07;;
22937;SDS011;11634;42.734;23.298;2023-03-04T12:16:50;18.55;;;13.32;;
22937;SDS011;11634;42.734;23.298;2023-03-04T12:22:50;18.10;;;12.15;;
22937;SDS011;11634;42.734;23.298;2023-03-04T12:30:42;21.13;;;12.98;;
22937;SDS011;11634;42.734;23.298;2023-03-04T12:42:19;25.02;;;13.50;;
22937;SDS011;11634;42.734;23.298;2023-03-04T12:45:06;21.08;;;14.43;;
22937;SDS011;11634;42.734;23.298;2023-03-04T12:50:45;19.35;;;14.40;;
22937;SDS011;11634;42.734;23.298;2023-03-04T12:53:32;25.40;;;16.08;;
22937;SDS011;11634;42.734;23.298;2023-03-04T12:56:08;21.67;;;14.18;;
22937;SDS011;11634;42.734;23.298;2023-03-04T12:58:49;18.92;;;14.40;;
22937;SDS011;11634;42.734;23.298;2023-03-04T13:04:17;18.25;;;14.05;;
22937;SDS011;11634;42.734;23.298;2023-03-04T13:06:48;21.17;;;14.38;;
22937;SDS011;11634;42.734;23.298;2023-03-04T13:12:03;23.75;;;15.15;;
22937;SDS011;11634;42.734;23.298;2023-03-04T13:14:30;20.73;;;14.63;;
22937;SDS011;11634;42.734;23.298;2023-03-04T13:16:58;18.48;;;14.05;;
22937;SDS011;11634;42.734;23.298;2023-03-04T13:25:39;20.48;;;15.05;;
22937;SDS011;11634;42.734;23.298;2023-03-04T13:36:00;17.48;;;12.95;;
22937;SDS011;11634;42.734;23.298;2023-03-04T13:43:46;19.30;;;14.93;;
22937;SDS011;11634;42.734;23.298;2023-03-04T14:02:00;19.33;;;14.98;;
22937;SDS011;11634;42.734;23.298;2023-03-04T14:04:44;19.92;;;14.63;;
22937;SDS011;11634;42.734;23.298;2023-03-04T14:07:30;23.95;;;16.30;;
22937;SDS011;11634;42.734;23.298;2023-03-04T14:12:55;21.20;;;16.08;;
22937;SDS011;11634;42.734;23.298;2023-03-04T14:15:26;31.10;;;18.45;;
22937;SDS011;11634;42.734;23.298;2023-03-04T14:17:57;27.10;;;17.55;;
22937;SDS011;11634;42.734;23.298;2023-03-04T14:20:29;25.25;;;17.35;;
22937;SDS011;11634;42.734;23.298;2023-03-04T14:22:57;26.73;;;18.67;;
22937;SDS011;11634;42.734;23.298;2023-03-04T14:25:28;27.20;;;18.80;;
22937;SDS011;11634;42.734;23.298;2023-03-04T14:28:12;27.58;;;19.05;;
22937;SDS011;11634;42.734;23.298;2023-03-04T14:30:41;26.35;;;18.77;;
22937;SDS011;11634;42.734;23.298;2023-03-04T14:33:08;26.50;;;18.73;;
22937;SDS011;11634;42.734;23.298;2023-03-04T14:35:43;26.65;;;18.75;;
22937;SDS011;11634;42.734;23.298;2023-03-04T14:38:17;25.13;;;18.40;;
22937;SDS011;11634;42.734;23.298;2023-03-04T14:40:57;24.45;;;18.75;;
22937;SDS011;11634;42.734;23.298;2023-03-04T14:43:34;27.70;;;18.52;;
22937;SDS011;11634;42.734;23.298;2023-03-04T14:46:04;27.42;;;18.77;;
22937;SDS011;11634;42.734;23.298;2023-03-04T14:48:36;28.40;;;18.42;;
22937;SDS011;11634;42.734;23.298;2023-03-04T14:51:02;27.48;;;19.17;;
22937;SDS011;11634;42.734;23.298;2023-03-04T14:53:31;24.58;;;20.13;;
22937;SDS011;11634;42.734;23.298;2023-03-04T14:58:32;27.90;;;18.73;;
22937;SDS011;11634;42.734;23.298;2023-03-04T15:03:41;33.78;;;19.48;;
22937;SDS011;11634;42.734;23.298;2023-03-04T15:06:17;29.40;;;19.50;;
22937;SDS011;11634;42.734;23.298;2023-03-04T15:08:55;26.65;;;19.80;;
22937;SDS011;11634;42.734;23.298;2023-03-04T15:11:43;29.75;;;19.88;;
22937;SDS011;11634;42.734;23.298;2023-03-04T15:17:18;34.50;;;20.63;;
22937;SDS011;11634;42.734;23.298;2023-03-04T15:19:59;29.63;;;19.02;;
22937;SDS011;11634;42.734;23.298;2023-03-04T15:22:31;24.05;;;18.27;;
22937;SDS011;11634;42.734;23.298;2023-03-04T15:25:12;25.15;;;18.27;;
22937;SDS011;11634;42.734;23.298;2023-03-04T15:27:40;28.00;;;18.98;;
22937;SDS011;11634;42.734;23.298;2023-03-04T15:30:12;32.17;;;22.17;;
22937;SDS011;11634;42.734;23.298;2023-03-04T15:32:41;37.22;;;23.17;;
22937;SDS011;11634;42.734;23.298;2023-03-04T15:35:08;28.40;;;19.98;;
22937;SDS011;11634;42.734;23.298;2023-03-04T15:37:37;34.88;;;19.83;;
22937;SDS011;11634;42.734;23.298;2023-03-04T15:40:05;32.53;;;20.48;;
22937;SDS011;11634;42.734;23.298;2023-03-04T15:42:39;27.80;;;19.13;;
22937;SDS011;11634;42.734;23.298;2023-03-04T15:45:27;32.00;;;21.48;;
22937;SDS011;11634;42.734;23.298;2023-03-04T15:47:53;28.75;;;21.13;;
22937;SDS011;11634;42.734;23.298;2023-03-04T15:50:19;28.60;;;19.98;;
22937;SDS011;11634;42.734;23.298;2023-03-04T15:52:45;27.15;;;21.42;;
22937;SDS011;11634;42.734;23.298;2023-03-04T15:55:18;29.75;;;21.55;;
22937;SDS011;11634;42.734;23.298;2023-03-04T15:57:47;29.33;;;20.65;;
22937;SDS011;11634;42.734;23.298;2023-03-04T16:00:17;39.83;;;22.63;;
22937;SDS011;11634;42.734;23.298;2023-03-04T16:02:43;28.30;;;19.83;;
22937;SDS011;11634;42.734;23.298;2023-03-04T16:05:12;32.10;;;22.08;;
22937;SDS011;11634;42.734;23.298;2023-03-04T16:07:40;31.45;;;21.23;;
22937;SDS011;11634;42.734;23.298;2023-03-04T16:12:57;29.65;;;21.48;;
22937;SDS011;11634;42.734;23.298;2023-03-04T16:15:24;36.25;;;24.05;;
22937;SDS011;11634;42.734;23.298;2023-03-04T16:17:51;35.30;;;22.00;;
22937;SDS011;11634;42.734;23.298;2023-03-04T16:20:18;30.95;;;19.90;;
22937;SDS011;11634;42.734;23.298;2023-03-04T16:22:47;27.52;;;20.30;;
22937;SDS011;11634;42.734;23.298;2023-03-04T16:25:17;26.38;;;19.17;;
22937;SDS011;11634;42.734;23.298;2023-03-04T16:27:43;30.20;;;18.80;;
22937;SDS011;11634;42.734;23.298;2023-03-04T16:30:12;29.50;;;19.95;;
22937;SDS011;11634;42.734;23.298;2023-03-04T16:32:39;27.00;;;19.40;;